createdAt,value
2023-04-20T00:01:32.754Z,2.08
2023-04-20T00:04:06.448Z,1.75
2023-04-20T00:06:38.446Z,2.70
2023-04-20T00:09:11.056Z,3.03
2023-04-20T00:11:43.023Z,2.05
2023-04-20T00:14:15.425Z,2.35
2023-04-20T00:16:49.227Z,2.60
2023-04-20T00:19:23.307Z,2.70
2023-04-20T00:21:55.238Z,2.15
2023-04-20T00:24:27.172Z,2.40
2023-04-20T00:26:59.079Z,2.90
2023-04-20T00:29:31.187Z,2.60
2023-04-20T00:32:03.133Z,2.10
2023-04-20T00:34:36.544Z,2.80
2023-04-20T00:37:08.474Z,2.28
2023-04-20T00:39:41.330Z,2.58
2023-04-20T00:42:13.266Z,2.53
2023-04-20T00:44:45.307Z,2.22
2023-04-20T00:47:17.371Z,2.47
2023-04-20T00:49:52.021Z,2.40
2023-04-20T00:52:24.057Z,3.25
2023-04-20T00:54:56.176Z,1.98
2023-04-20T00:57:28.447Z,2.90
2023-04-20T01:00:01.523Z,3.30
2023-04-20T01:02:33.585Z,2.50
2023-04-20T01:05:08.436Z,2.03
2023-04-20T01:07:40.529Z,2.40
2023-04-20T01:10:12.654Z,2.40
2023-04-20T01:12:44.964Z,2.53
2023-04-20T01:15:17.041Z,3.53
2023-04-20T01:17:49.731Z,2.60
2023-04-20T01:20:23.790Z,2.92
2023-04-20T01:22:57.224Z,3.22
2023-04-20T01:25:29.234Z,2.70
2023-04-20T01:28:02.121Z,3.00
2023-04-20T01:30:34.485Z,2.55
2023-04-20T01:33:08.808Z,2.85
2023-04-20T01:35:42.539Z,2.92
2023-04-20T01:38:19.548Z,2.53
2023-04-20T01:40:52.364Z,2.80
2023-04-20T01:43:25.466Z,3.00
2023-04-20T01:45:57.529Z,2.35
2023-04-20T01:48:29.689Z,2.20
2023-04-20T01:51:01.861Z,2.33
2023-04-20T01:53:35.214Z,2.47
2023-04-20T01:56:07.387Z,2.85
2023-04-20T01:58:39.411Z,2.90
2023-04-20T02:01:11.874Z,3.03
2023-04-20T02:03:44.022Z,3.08
2023-04-20T02:06:16.051Z,3.22
2023-04-20T02:08:50.239Z,2.75
2023-04-20T02:11:22.517Z,3.20
2023-04-20T02:13:54.558Z,2.65
2023-04-20T02:16:29.446Z,2.60
2023-04-20T02:19:01.578Z,3.08
2023-04-20T02:21:33.576Z,2.95
2023-04-20T02:24:07.490Z,1.98
2023-04-20T02:26:39.479Z,2.85
2023-04-20T02:29:12.748Z,2.45
2023-04-20T02:31:45.084Z,3.00
2023-04-20T02:34:20.974Z,2.70
2023-04-20T02:36:52.895Z,2.50
2023-04-20T02:39:26.235Z,2.90
2023-04-20T02:41:59.560Z,2.33
2023-04-20T02:44:31.735Z,2.30
2023-04-20T02:47:03.696Z,2.72
2023-04-20T02:49:35.753Z,2.88
2023-04-20T02:52:07.715Z,3.15
2023-04-20T02:54:41.239Z,2.40
2023-04-20T02:57:14.283Z,2.47
2023-04-20T02:59:46.893Z,2.83
2023-04-20T03:02:23.016Z,3.17
2023-04-20T03:04:55.878Z,3.05
2023-04-20T03:07:28.500Z,3.20
2023-04-20T03:10:02.312Z,3.75
2023-04-20T03:12:45.494Z,3.53
2023-04-20T03:15:18.755Z,4.85
2023-04-20T03:18:22.704Z,3.10
2023-04-20T03:20:54.774Z,3.55
2023-04-20T03:23:26.989Z,2.80
2023-04-20T03:26:01.633Z,2.63
2023-04-20T03:29:01.238Z,3.42
2023-04-20T03:31:34.629Z,3.17
2023-04-20T03:34:06.802Z,2.63
2023-04-20T03:36:39.154Z,2.63
2023-04-20T03:39:11.542Z,2.72
2023-04-20T03:41:44.928Z,2.88
2023-04-20T03:44:16.915Z,3.47
2023-04-20T03:46:48.873Z,2.95
2023-04-20T03:49:25.205Z,3.17
2023-04-20T03:51:57.135Z,2.95
2023-04-20T03:54:29.379Z,2.20
2023-04-20T03:57:02.776Z,2.83
2023-04-20T03:59:34.882Z,2.90
2023-04-20T04:02:10.991Z,3.17
2023-04-20T04:04:43.509Z,3.15
2023-04-20T04:07:15.572Z,3.05
2023-04-20T04:09:48.536Z,2.58
2023-04-20T04:12:22.503Z,3.20
2023-04-20T04:14:55.284Z,2.92
2023-04-20T04:17:30.038Z,3.67
2023-04-20T04:20:02.502Z,3.15
2023-04-20T04:22:35.437Z,3.10
2023-04-20T04:25:34.165Z,4.18
2023-04-20T04:28:07.612Z,3.47
2023-04-20T04:30:42.955Z,3.05
2023-04-20T04:33:15.409Z,3.45
2023-04-20T04:35:50.864Z,4.20
2023-04-20T04:38:22.936Z,3.40
2023-04-20T04:40:56.522Z,3.30
2023-04-20T04:43:30.721Z,3.30
2023-04-20T04:46:11.750Z,4.07
2023-04-20T04:48:43.777Z,3.97
2023-04-20T04:51:16.241Z,3.22
2023-04-20T04:53:49.660Z,3.15
2023-04-20T04:56:21.837Z,3.35
2023-04-20T04:58:55.265Z,3.75
2023-04-20T05:01:27.340Z,3.15
2023-04-20T05:03:59.610Z,3.60
2023-04-20T05:06:32.662Z,3.28
2023-04-20T05:09:04.620Z,3.42
2023-04-20T05:11:36.564Z,3.20
2023-04-20T05:14:09.920Z,3.90
2023-04-20T05:16:41.981Z,3.80
2023-04-20T05:19:13.907Z,6.03
2023-04-20T05:21:45.956Z,3.28
2023-04-20T05:24:19.514Z,2.90
2023-04-20T05:26:51.467Z,3.60
2023-04-20T05:29:24.805Z,2.75
2023-04-20T05:31:56.856Z,2.47
2023-04-20T05:34:28.846Z,2.88
2023-04-20T05:37:00.908Z,3.80
2023-04-20T05:39:32.896Z,3.00
2023-04-20T05:42:04.932Z,3.53
2023-04-20T05:44:39.532Z,2.78
2023-04-20T05:47:11.542Z,3.08
2023-04-20T05:49:45.503Z,3.05
2023-04-20T05:52:17.483Z,3.10
2023-04-20T05:54:49.848Z,2.90
2023-04-20T05:57:23.597Z,2.40
2023-04-20T05:59:57.162Z,2.50
2023-04-20T06:02:29.294Z,2.53
2023-04-20T06:05:01.463Z,2.85
2023-04-20T06:07:33.567Z,2.78
2023-04-20T06:10:06.830Z,2.85
2023-04-20T06:12:38.820Z,3.22
2023-04-20T06:15:12.288Z,2.78
2023-04-20T06:17:44.409Z,3.10
2023-04-20T06:20:16.938Z,2.88
2023-04-20T06:22:49.204Z,3.03
2023-04-20T06:25:21.189Z,2.80
2023-04-20T06:27:53.249Z,2.13
2023-04-20T06:30:26.625Z,2.17
2023-04-20T06:32:58.709Z,2.65
2023-04-20T06:35:30.712Z,2.30
2023-04-20T06:38:02.704Z,2.63
2023-04-20T06:40:34.831Z,2.33
2023-04-20T06:43:06.828Z,2.22
2023-04-20T06:45:40.329Z,2.30
2023-04-20T06:48:23.877Z,2.65
2023-04-20T06:51:03.263Z,2.78
2023-04-20T06:53:35.271Z,2.72
2023-04-20T06:56:07.911Z,2.20
2023-04-20T06:58:39.963Z,2.47
2023-04-20T07:01:13.416Z,2.50
2023-04-20T07:03:47.257Z,2.58
2023-04-20T07:06:19.423Z,2.70
2023-04-20T07:08:51.376Z,2.30
2023-04-20T07:11:24.253Z,2.70
2023-04-20T07:13:56.229Z,2.38
2023-04-20T07:16:29.585Z,2.33
2023-04-20T07:19:01.617Z,2.30
2023-04-20T07:21:33.586Z,2.88
2023-04-20T07:24:06.219Z,2.90
2023-04-20T07:26:38.185Z,3.28
2023-04-20T07:29:10.154Z,2.83
2023-04-20T07:31:43.517Z,2.92
2023-04-20T07:34:15.710Z,4.15
2023-04-20T07:36:47.774Z,2.30
2023-04-20T07:39:19.896Z,2.05
2023-04-20T07:41:51.948Z,2.10
2023-04-20T07:44:23.896Z,2.00
2023-04-20T07:46:57.861Z,1.90
2023-04-20T07:49:29.919Z,2.05
2023-04-20T07:52:15.230Z,1.75
2023-04-20T07:54:49.003Z,2.03
2023-04-20T07:57:21.189Z,1.80
2023-04-20T07:59:53.181Z,2.13
2023-04-20T08:02:26.698Z,1.50
2023-04-20T08:04:59.120Z,2.00
2023-04-20T08:07:31.753Z,1.88
2023-04-20T08:10:04.339Z,2.28
2023-04-20T08:12:36.677Z,1.98
2023-04-20T08:15:10.170Z,1.98
2023-04-20T08:17:43.561Z,2.03
2023-04-20T08:20:15.692Z,2.20
2023-04-20T08:22:47.740Z,3.17
2023-04-20T08:25:19.914Z,2.25
2023-04-20T08:27:52.008Z,2.53
2023-04-20T08:30:24.133Z,2.72
2023-04-20T08:32:58.295Z,2.03
2023-04-20T08:35:30.478Z,1.80
2023-04-20T08:38:02.530Z,2.08
2023-04-20T08:40:36.894Z,4.60
2023-04-20T08:43:08.875Z,4.85
2023-04-20T08:45:45.365Z,3.22
2023-04-20T08:48:21.328Z,3.38
2023-04-20T08:50:53.694Z,2.80
2023-04-20T08:53:25.712Z,2.33
2023-04-20T08:55:57.777Z,2.50
2023-04-20T08:58:32.304Z,1.98
2023-04-20T09:01:04.623Z,2.72
2023-04-20T09:03:39.498Z,2.75
2023-04-20T09:06:16.385Z,2.60
2023-04-20T09:08:48.380Z,2.50
2023-04-20T09:11:24.245Z,2.35
2023-04-20T09:14:01.432Z,2.28
2023-04-20T09:16:37.561Z,2.20
2023-04-20T09:19:12.859Z,2.10
2023-04-20T09:21:48.860Z,2.03
2023-04-20T09:24:21.645Z,2.10
2023-04-20T09:26:53.708Z,2.13
2023-04-20T09:29:25.838Z,2.60
2023-04-20T09:31:57.898Z,2.20
2023-04-20T09:34:31.771Z,1.90
2023-04-20T09:37:05.034Z,2.15
2023-04-20T09:39:45.732Z,2.10
2023-04-20T09:42:18.352Z,2.35
2023-04-20T09:44:51.391Z,2.55
2023-04-20T09:47:26.047Z,2.30
2023-04-20T09:50:10.253Z,1.90
2023-04-20T09:52:52.434Z,1.90
2023-04-20T09:55:26.313Z,1.90
2023-04-20T09:57:59.216Z,2.05
2023-04-20T10:00:31.279Z,2.08
2023-04-20T10:03:03.809Z,1.80
2023-04-20T10:05:39.446Z,1.90
2023-04-20T10:08:11.536Z,2.25
2023-04-20T10:10:45.488Z,2.30
2023-04-20T10:13:21.999Z,2.00
2023-04-20T10:15:54.075Z,2.58
2023-04-20T10:18:26.720Z,2.25
2023-04-20T10:21:09.550Z,2.22
2023-04-20T10:23:48.807Z,2.00
2023-04-20T10:26:21.055Z,2.65
2023-04-20T10:28:53.123Z,2.20
2023-04-20T10:31:35.835Z,1.90
2023-04-20T10:34:08.730Z,2.00
2023-04-20T10:36:42.787Z,1.92
2023-04-20T10:39:19.296Z,2.25
2023-04-20T10:41:53.463Z,2.65
2023-04-20T10:44:25.737Z,2.38
2023-04-20T10:46:57.784Z,2.22
2023-04-20T10:49:31.800Z,1.90
2023-04-20T10:52:05.429Z,2.30
2023-04-20T10:54:41.524Z,2.38
2023-04-20T10:57:16.444Z,2.05
2023-04-20T10:59:48.417Z,3.28
2023-04-20T11:02:20.590Z,2.28
2023-04-20T11:04:53.396Z,1.98
2023-04-20T11:07:26.837Z,2.17
2023-04-20T11:09:58.797Z,2.15
2023-04-20T11:12:39.286Z,2.28
2023-04-20T11:15:11.675Z,2.53
2023-04-20T11:17:44.170Z,2.30
2023-04-20T11:20:19.088Z,1.92
2023-04-20T11:23:00.705Z,2.20
2023-04-20T11:25:32.683Z,1.90
2023-04-20T11:28:10.983Z,2.67
2023-04-20T11:30:43.110Z,2.58
2023-04-20T11:33:15.552Z,2.28
2023-04-20T11:35:47.978Z,3.03
2023-04-20T11:38:28.483Z,2.10
2023-04-20T11:41:04.842Z,2.28
2023-04-20T11:43:36.848Z,1.92
2023-04-20T11:46:14.619Z,1.70
2023-04-20T11:48:47.466Z,2.25
2023-04-20T11:51:19.473Z,2.03
2023-04-20T11:53:52.856Z,1.98
2023-04-20T11:56:24.852Z,2.33
2023-04-20T11:58:58.020Z,2.05
2023-04-20T12:01:30.112Z,2.30
2023-04-20T12:04:02.452Z,1.90
2023-04-20T12:06:34.803Z,2.00
2023-04-20T12:09:08.289Z,1.98
2023-04-20T12:11:40.298Z,1.90
2023-04-20T12:14:12.218Z,2.00
2023-04-20T12:16:44.313Z,2.35
2023-04-20T12:19:16.747Z,2.15
2023-04-20T12:21:49.086Z,1.83
2023-04-20T12:24:22.588Z,2.00
2023-04-20T12:26:54.739Z,1.70
2023-04-20T12:29:26.704Z,2.08
2023-04-20T12:31:58.832Z,2.22
2023-04-20T12:34:30.966Z,2.10
2023-04-20T12:37:02.952Z,2.03
2023-04-20T12:39:36.307Z,1.90
2023-04-20T12:42:08.298Z,1.48
2023-04-20T12:44:40.375Z,1.80
2023-04-20T12:47:13.693Z,2.33
2023-04-20T12:49:46.103Z,1.63
2023-04-20T12:52:18.073Z,1.88
2023-04-20T12:54:51.451Z,2.03
2023-04-20T12:57:23.417Z,1.30
2023-04-20T12:59:56.463Z,1.60
2023-04-20T13:02:29.703Z,1.75
2023-04-20T13:05:01.883Z,1.90
2023-04-20T13:07:34.015Z,2.00
2023-04-20T13:10:08.610Z,1.75
2023-04-20T13:12:40.590Z,2.03
2023-04-20T13:15:13.199Z,1.80
2023-04-20T13:17:45.313Z,1.50
2023-04-20T13:20:17.302Z,1.92
2023-04-20T13:22:57.851Z,1.67
2023-04-20T13:25:33.458Z,1.55
2023-04-20T13:28:05.877Z,1.70
2023-04-20T13:30:38.170Z,1.52
2023-04-20T13:33:10.525Z,1.55
2023-04-20T13:35:43.210Z,1.42
2023-04-20T13:38:15.310Z,1.38
2023-04-20T13:40:48.683Z,1.50
2023-04-20T13:43:21.821Z,1.65
2023-04-20T13:45:53.986Z,1.85
2023-04-20T13:48:26.221Z,1.38
2023-04-20T13:50:58.213Z,1.60
2023-04-20T13:53:30.204Z,1.48
2023-04-20T13:56:04.998Z,1.48
2023-04-20T13:58:37.172Z,1.67
2023-04-20T14:01:09.810Z,1.48
2023-04-20T14:03:43.270Z,1.55
2023-04-20T14:06:15.429Z,1.65
2023-04-20T14:08:47.588Z,1.60
2023-04-20T14:11:21.080Z,1.67
2023-04-20T14:13:53.118Z,1.90
2023-04-20T14:16:26.192Z,1.83
2023-04-20T14:18:58.244Z,1.40
2023-04-20T14:21:32.812Z,1.58
2023-04-20T14:24:05.020Z,1.33
2023-04-20T14:26:38.351Z,1.30
2023-04-20T14:29:10.349Z,1.58
2023-04-20T14:31:42.314Z,1.80
2023-04-20T14:34:14.497Z,1.30
2023-04-20T14:36:46.591Z,2.03
2023-04-20T14:39:19.894Z,1.52
2023-04-20T14:41:53.267Z,1.42
2023-04-20T14:44:25.240Z,2.35
2023-04-20T14:46:57.284Z,1.63
2023-04-20T14:49:29.366Z,1.42
2023-04-20T14:52:01.356Z,1.65
2023-04-20T14:54:33.300Z,1.60
2023-04-20T14:57:06.760Z,1.75
2023-04-20T14:59:41.391Z,1.30
2023-04-20T15:02:14.252Z,1.00
2023-04-20T15:04:46.783Z,2.10
2023-04-20T15:07:18.879Z,1.63
2023-04-20T15:09:50.900Z,1.50
2023-04-20T15:12:24.265Z,1.88
2023-04-20T15:14:56.189Z,1.55
2023-04-20T15:17:28.240Z,2.20
2023-04-20T15:20:00.397Z,2.00
2023-04-20T15:22:32.397Z,1.98
2023-04-20T15:25:05.415Z,2.30
2023-04-20T15:27:39.132Z,1.60
2023-04-20T15:30:11.730Z,1.60
2023-04-20T15:32:43.732Z,1.30
2023-04-20T15:35:15.808Z,1.30
2023-04-20T15:37:47.778Z,2.00
2023-04-20T15:40:21.497Z,1.33
2023-04-20T15:42:55.807Z,1.80
2023-04-20T15:45:27.860Z,1.40
2023-04-20T15:48:01.114Z,1.35
2023-04-20T15:50:33.208Z,1.50
2023-04-20T15:53:05.305Z,1.40
2023-04-20T15:55:38.816Z,1.23
2023-04-20T15:58:12.320Z,1.67
2023-04-20T16:00:44.338Z,1.58
2023-04-20T16:03:16.553Z,1.77
2023-04-20T16:05:48.652Z,1.60
2023-04-20T16:08:21.141Z,1.70
2023-04-20T16:10:54.974Z,1.58
2023-04-20T16:13:28.389Z,3.15
2023-04-20T16:16:00.349Z,4.32
2023-04-20T16:18:32.991Z,1.48
2023-04-20T16:21:05.322Z,1.27
2023-04-20T16:23:37.365Z,1.38
2023-04-20T16:26:09.389Z,1.40
2023-04-20T16:28:42.724Z,2.47
2023-04-20T16:31:14.739Z,1.40
2023-04-20T16:33:47.112Z,1.27
2023-04-20T16:36:19.203Z,1.50
2023-04-20T16:38:51.175Z,2.80
2023-04-20T16:41:23.258Z,1.40
2023-04-20T16:43:56.600Z,2.35
2023-04-20T16:46:28.606Z,2.28
2023-04-20T16:49:00.615Z,2.55
2023-04-20T16:51:33.350Z,2.90
2023-04-20T16:54:05.425Z,3.22
2023-04-20T16:56:37.484Z,3.40
2023-04-20T16:59:10.864Z,3.05
2023-04-20T17:01:42.900Z,1.63
2023-04-20T17:04:14.971Z,1.70
2023-04-20T17:06:47.245Z,3.58
2023-04-20T17:09:19.240Z,8.70
2023-04-20T17:11:51.469Z,3.60
2023-04-20T17:14:24.888Z,5.03
2023-04-20T17:16:57.387Z,2.58
2023-04-20T17:19:30.793Z,1.98
2023-04-20T17:22:03.688Z,2.95
2023-04-20T17:24:35.661Z,2.13
2023-04-20T17:27:08.303Z,1.48
2023-04-20T17:29:43.280Z,1.35
2023-04-20T17:32:15.384Z,1.75
2023-04-20T17:34:48.753Z,1.48
2023-04-20T17:37:21.561Z,2.92
2023-04-20T17:39:53.927Z,4.07
2023-04-20T17:42:26.017Z,3.17
2023-04-20T17:44:59.416Z,1.38
2023-04-20T17:47:32.705Z,1.55
2023-04-20T17:50:06.118Z,2.42
2023-04-20T17:52:38.089Z,1.92
2023-04-20T17:55:10.164Z,2.55
2023-04-20T17:57:42.122Z,2.75
2023-04-20T18:00:16.700Z,8.35
2023-04-20T18:02:48.832Z,14.45
2023-04-20T18:05:21.117Z,6.68
2023-04-20T18:07:53.180Z,1.85
2023-04-20T18:10:25.210Z,5.43
2023-04-20T18:12:57.701Z,11.35
2023-04-20T18:15:31.266Z,3.28
2023-04-20T18:18:03.412Z,3.90
2023-04-20T18:20:35.425Z,8.65
2023-04-20T18:23:07.574Z,9.55
2023-04-20T18:25:40.018Z,7.57
2023-04-20T18:28:12.006Z,4.60
2023-04-20T18:30:45.967Z,3.28
2023-04-20T18:33:18.058Z,2.40
2023-04-20T18:35:50.035Z,2.00
2023-04-20T18:38:22.006Z,5.65
2023-04-20T18:40:53.994Z,5.55
2023-04-20T18:43:26.416Z,5.40
2023-04-20T18:45:59.783Z,3.83
2023-04-20T18:48:31.788Z,3.58
2023-04-20T18:51:04.178Z,3.92
2023-04-20T18:53:36.175Z,4.50
2023-04-20T18:56:10.192Z,5.25
2023-04-20T18:58:42.381Z,3.92
2023-04-20T19:01:15.771Z,7.03
2023-04-20T19:03:48.300Z,2.15
2023-04-20T19:06:20.405Z,2.22
2023-04-20T19:08:52.367Z,4.10
2023-04-20T19:11:24.323Z,9.85
2023-04-20T19:13:56.298Z,9.15
2023-04-20T19:16:33.922Z,8.07
2023-04-20T19:19:06.080Z,9.52
2023-04-20T19:21:38.093Z,1.98
2023-04-20T19:24:11.616Z,1.45
2023-04-20T19:26:44.149Z,3.42
2023-04-20T19:29:16.096Z,3.53
2023-04-20T19:31:49.596Z,6.10
2023-04-20T19:34:21.634Z,9.15
2023-04-20T19:36:54.196Z,6.75
2023-04-20T19:39:26.156Z,3.13
2023-04-20T19:41:58.513Z,11.43
2023-04-20T19:44:31.043Z,5.45
2023-04-20T19:47:04.432Z,6.50
2023-04-20T19:49:36.472Z,6.60
2023-04-20T19:52:08.514Z,4.43
2023-04-20T19:54:40.558Z,4.85
2023-04-20T19:57:12.614Z,3.95
2023-04-20T19:59:44.541Z,5.95
2023-04-20T20:02:17.909Z,3.58
2023-04-20T20:04:50.222Z,6.03
2023-04-20T20:07:22.174Z,4.20
2023-04-20T20:09:54.189Z,4.43
2023-04-20T20:12:26.402Z,4.32
2023-04-20T20:14:58.567Z,5.32
2023-04-20T20:17:31.953Z,5.85
2023-04-20T20:20:06.207Z,3.10
2023-04-20T20:22:38.178Z,2.30
2023-04-20T20:25:10.334Z,2.00
2023-04-20T20:27:42.353Z,2.70
2023-04-20T20:30:15.193Z,3.15
2023-04-20T20:32:48.639Z,2.42
2023-04-20T20:35:21.419Z,2.38
2023-04-20T20:37:54.435Z,3.30
2023-04-20T20:40:26.576Z,2.05
2023-04-20T20:42:58.581Z,3.60
2023-04-20T20:45:31.053Z,3.97
2023-04-20T20:48:05.149Z,2.70
2023-04-20T20:50:37.197Z,1.98
2023-04-20T20:53:09.131Z,1.67
2023-04-20T20:55:41.230Z,2.13
2023-04-20T20:58:13.178Z,2.05
2023-04-20T21:00:47.169Z,2.50
2023-04-20T21:03:20.988Z,2.75
2023-04-20T21:05:53.111Z,2.38
2023-04-20T21:08:25.203Z,2.42
2023-04-20T21:10:57.225Z,2.38
2023-04-20T21:13:29.171Z,2.45
2023-04-20T21:16:01.242Z,1.85
2023-04-20T21:18:34.575Z,1.83
2023-04-20T21:21:06.626Z,1.73
2023-04-20T21:23:38.625Z,3.45
2023-04-20T21:26:10.641Z,3.03
2023-04-20T21:28:42.609Z,2.40
2023-04-20T21:31:14.642Z,1.67
2023-04-20T21:33:48.000Z,1.38
2023-04-20T21:36:19.986Z,1.50
2023-04-20T21:38:52.296Z,1.30
2023-04-20T21:41:26.653Z,1.60
2023-04-20T21:43:58.725Z,1.10
2023-04-20T21:46:30.783Z,1.27
2023-04-20T21:49:04.165Z,1.48
2023-04-20T21:51:36.120Z,1.27
2023-04-20T21:54:08.069Z,1.50
2023-04-20T21:56:40.068Z,2.08
2023-04-20T21:59:12.098Z,1.73
2023-04-20T22:01:44.042Z,1.63
2023-04-20T22:04:17.662Z,1.50
2023-04-20T22:06:49.865Z,1.00
2023-04-20T22:09:22.154Z,1.45
2023-04-20T22:11:54.117Z,1.40
2023-04-20T22:14:26.158Z,1.98
2023-04-20T22:16:58.136Z,2.25
2023-04-20T22:19:31.488Z,1.75
2023-04-20T22:22:03.477Z,1.45
2023-04-20T22:24:35.462Z,1.55
2023-04-20T22:27:07.489Z,1.60
2023-04-20T22:29:39.485Z,2.03
2023-04-20T22:32:11.458Z,1.80
2023-04-20T22:34:44.920Z,1.67
2023-04-20T22:37:16.960Z,1.40
2023-04-20T22:39:48.911Z,1.80
2023-04-20T22:42:20.886Z,1.70
2023-04-20T22:44:52.864Z,1.75
2023-04-20T22:47:24.907Z,1.42
2023-04-20T22:49:58.392Z,1.70
2023-04-20T22:52:30.822Z,2.03
2023-04-20T22:55:02.790Z,1.25
2023-04-20T22:57:34.801Z,1.65
2023-04-20T23:00:10.667Z,1.50
2023-04-20T23:02:43.092Z,1.85
2023-04-20T23:05:20.433Z,1.60
2023-04-20T23:07:53.956Z,1.17
2023-04-20T23:10:28.646Z,1.75
2023-04-20T23:13:01.137Z,1.50
2023-04-20T23:15:33.204Z,1.88
2023-04-20T23:18:05.785Z,1.25
2023-04-20T23:20:39.297Z,2.38
2023-04-20T23:23:11.733Z,1.67
2023-04-20T23:25:43.677Z,1.40
2023-04-20T23:28:15.675Z,1.58
2023-04-20T23:30:47.657Z,1.88
2023-04-20T23:33:19.585Z,1.20
2023-04-20T23:35:52.879Z,1.42
2023-04-20T23:38:24.769Z,1.30
2023-04-20T23:40:56.740Z,1.33
2023-04-20T23:43:28.660Z,1.17
2023-04-20T23:46:00.751Z,1.10
2023-04-20T23:48:33.001Z,1.50
2023-04-20T23:51:06.423Z,1.60
2023-04-20T23:53:39.313Z,1.83
2023-04-20T23:56:11.317Z,1.38
2023-04-20T23:58:43.254Z,1.98
